Palouse, WA (99161)

6:16 AM PDT on May 30, 2015 (GMT -0700)
Palouse Cove | | Change Station
CLOSE
Current Station
Personal Weather Station
Location: Palouse, WA
Elevation: 2462 ft
Nearby Weather Stations

Elev 2462 ft 46.91 °N, 117.08 °W | Updated 14 seconds ago

Partly Cloudy
Partly Cloudy
57.2 °F
Feels Like 57.2 °F
N
0.0
Wind Variable Wind from East
Gusts 2.0 mph

Today
High -- | Low -- °F
--% Chance of Precip.
Yesterday
High -- | Low -- °F
Precip. -- in
4:58 AM 8:33 PM
Waxing Gibbous, 90% visible
Pressure 29.90 in
Visibility 10.0 miles
Clouds Scattered Clouds 12000 ft
Dew Point 53 °F
Humidity 86%
Rainfall 0.00 in
Snow Depth Not available.
UV 0 out of 12
Pollen 8.00 out of 12
Air Quality Not available.
Flu Activity Sporadic
METAR KPUW 301253Z AUTO 11006KT 10SM SCT120 16/12 A2994 RMK AO2 SLP125 T01560117

More Conditions Fewer Conditions

Pressure 29.90 in
Visibility 10.0 miles
Clouds Scattered Clouds 12000 ft
Dew Point 53 °F
Humidity 86%
Rainfall 0.00 in
Snow Depth Not available.
UV 0 out of 12
Pollen 8.00 out of 12
Air Quality Not available.
Flu Activity Sporadic
METAR KPUW 301253Z AUTO 11006KT 10SM SCT120 16/12 A2994 RMK AO2 SLP125 T01560117

More Conditions Fewer Conditions

10-Day Weather Forecast

Almanac

Astronomy

May. 30, 2015 Rise Set
Actual Time
Civil Twilight
Nautical Twilight
Astronomical Twilight
Moon
Length of Visible Light
Length of Day
Tomorrow will be .
, % of the Moon is Illuminated

Today's Extremes

State Highs State Lows

Community

WunderPhotos

Upload Photos

1,825,505 photos uploaded!

WunderBlogs® & News

Nearby

Air Quality

  Air Quality AQ Index Pollutant
Not available.

Snow Depth

Station Depth Elevation

Earthquake Activity

City Distance Mag. Time & Date
Minimum magnitude displayed is 2.5.

Coastal Water Temperatures

Place Temperature

Stations

Nearby Weather Stations

Station Location Temp. Windchill Dew Point Humidity Wind Precip. Elev Updated Type